Time;durP1;ratioP1;P1;durP2;ratioP2;P2;SDS_P1;SDS_P2;PMS_P1;PMS_P2;Temp;Humidity;BMP_temperature;BMP_pressure;BME280_temperature;BME280_humidity;BME280_pressure;Samples;Min_cycle;Max_cycle;Signal;HPM_P1;HPM_P2
2022/12/23 00:00:45;;;;;;;5.25;3.35;;;23.10;46.60;;;;;;6104382;28;80324;-64
2022/12/23 00:03:45;;;;;;;6.00;3.78;;;23.10;46.60;;;;;;6086598;28;80444;-63
2022/12/23 00:06:46;;;;;;;4.95;2.70;;;23.00;46.40;;;;;;6088861;28;80900;-62
2022/12/23 00:09:46;;;;;;;3.90;2.95;;;23.10;46.40;;;;;;6080317;28;80447;-63
2022/12/23 00:16:06;;;;;;;3.72;2.72;;;23.00;46.40;;;;;;6081318;28;81029;-61
2022/12/23 00:19:06;;;;;;;3.40;2.58;;;23.00;46.30;;;;;;6104942;28;80493;-63
2022/12/23 00:22:07;;;;;;;3.75;2.88;;;23.00;46.30;;;;;;6080678;28;81203;-61
2022/12/23 00:25:07;;;;;;;2.78;2.42;;;23.00;46.30;;;;;;6081717;28;80468;-66
2022/12/23 00:28:10;;;;;;;3.28;2.47;;;23.00;46.30;;;;;;6083610;28;82864;-65
2022/12/23 00:31:10;;;;;;;2.90;2.28;;;23.00;46.30;;;;;;6090928;28;80885;-66
2022/12/23 00:34:11;;;;;;;2.72;2.35;;;23.00;46.40;;;;;;6095257;28;83337;-66
2022/12/23 00:37:12;;;;;;;3.58;2.47;;;23.00;46.40;;;;;;6114669;28;86214;-65
2022/12/23 00:43:36;;;;;;;3.33;2.40;;;23.00;46.30;;;;;;6100180;28;80931;-65
2022/12/23 00:46:37;;;;;;;2.80;2.30;;;23.00;46.50;;;;;;6093221;28;80376;-64
2022/12/23 00:49:43;;;;;;;2.40;2.00;;;23.00;46.50;;;;;;6095290;28;80641;-64
2022/12/23 00:52:44;;;;;;;3.50;2.67;;;23.00;46.50;;;;;;6102298;28;80590;-67
2022/12/23 00:55:46;;;;;;;2.40;1.80;;;23.00;46.60;;;;;;6103816;28;80488;-67
2022/12/23 00:58:47;;;;;;;3.28;2.25;;;23.00;46.70;;;;;;6100041;28;80642;-67
2022/12/23 01:08:26;;;;;;;3.15;2.05;;;23.00;46.80;;;;;;6073736;28;82023;-66
2022/12/23 01:11:26;;;;;;;2.33;2.03;;;23.00;46.70;;;;;;6079585;28;80808;-64
2022/12/23 01:14:27;;;;;;;2.15;1.95;;;23.00;46.60;;;;;;6080324;28;80139;-64
2022/12/23 01:17:27;;;;;;;2.33;1.80;;;23.00;46.70;;;;;;6081199;28;82458;-64
2022/12/23 01:20:28;;;;;;;2.55;2.08;;;23.00;46.70;;;;;;6079158;28;81158;-62
2022/12/23 01:23:29;;;;;;;3.38;2.40;;;23.00;46.70;;;;;;6079032;28;81388;-62
2022/12/23 01:26:29;;;;;;;2.13;1.80;;;23.00;46.60;;;;;;6073735;28;80990;-61
2022/12/23 01:29:30;;;;;;;2.25;2.05;;;23.00;46.50;;;;;;6071329;28;81146;-61
2022/12/23 01:32:30;;;;;;;2.95;2.15;;;23.00;46.50;;;;;;6078886;28;80374;-60
2022/12/23 01:35:31;;;;;;;2.33;2.03;;;23.00;46.40;;;;;;6078097;28;81941;-60
2022/12/23 01:38:31;;;;;;;3.30;2.38;;;23.00;46.30;;;;;;6079791;28;80554;-68
2022/12/23 01:44:51;;;;;;;2.72;1.90;;;23.00;46.30;;;;;;6079049;28;81830;-69
2022/12/23 01:47:52;;;;;;;2.30;1.88;;;23.00;46.30;;;;;;6066199;28;80737;-67
2022/12/23 01:50:52;;;;;;;2.40;1.90;;;23.00;46.30;;;;;;6058129;28;82966;-67
2022/12/23 01:53:53;;;;;;;2.78;1.98;;;23.00;46.30;;;;;;6068463;28;83176;-70
2022/12/23 01:56:53;;;;;;;2.10;1.67;;;23.00;46.20;;;;;;6072808;28;82663;-62
2022/12/23 02:09:52;;;;;;;2.58;1.80;;;22.90;46.00;;;;;;6088856;28;85654;-63
2022/12/23 02:12:52;;;;;;;1.98;1.67;;;23.00;46.10;;;;;;6097627;28;80784;-60
2022/12/23 02:19:12;;;;;;;1.70;1.60;;;22.90;45.90;;;;;;6073239;28;81268;-62
2022/12/23 02:22:13;;;;;;;2.13;1.63;;;22.90;45.90;;;;;;6083745;28;80206;-62
2022/12/23 02:25:13;;;;;;;2.08;1.88;;;22.90;45.90;;;;;;6067367;28;82774;-62
2022/12/23 02:28:14;;;;;;;2.80;1.92;;;22.90;45.90;;;;;;6073706;28;80760;-62
2022/12/23 02:31:14;;;;;;;1.92;1.73;;;22.90;45.90;;;;;;6080622;28;80537;-62
2022/12/23 02:34:15;;;;;;;1.65;1.55;;;22.90;45.90;;;;;;6080391;28;80130;-62
2022/12/23 02:37:15;;;;;;;2.03;1.60;;;22.90;45.90;;;;;;6081131;28;80294;-63
2022/12/23 02:40:16;;;;;;;1.67;1.58;;;22.90;46.00;;;;;;6094198;28;81306;-63
2022/12/23 02:43:16;;;;;;;2.17;1.77;;;22.90;45.80;;;;;;6058714;28;80096;-61
2022/12/23 02:46:17;;;;;;;1.15;1.08;;;22.90;46.00;;;;;;6071134;28;80613;-62
2022/12/23 02:49:17;;;;;;;2.47;1.92;;;22.90;46.10;;;;;;6076638;28;80418;-62
2022/12/23 02:52:18;;;;;;;1.80;1.63;;;22.90;45.90;;;;;;6082341;28;80361;-62
2022/12/23 02:55:18;;;;;;;1.70;1.40;;;22.90;46.70;;;;;;6070822;28;80654;-61
2022/12/23 02:58:19;;;;;;;2.10;1.75;;;22.90;46.00;;;;;;6066206;28;80281;-61
2022/12/23 03:01:19;;;;;;;1.60;1.50;;;22.90;46.00;;;;;;6072117;28;80790;-63
2022/12/23 03:04:20;;;;;;;1.50;1.40;;;22.90;46.20;;;;;;6086397;28;80690;-63
2022/12/23 03:07:20;;;;;;;2.60;1.45;;;22.90;46.20;;;;;;6098584;28;80802;-64
2022/12/23 03:10:21;;;;;;;1.50;1.27;;;22.90;46.20;;;;;;6083276;28;81777;-62
2022/12/23 03:13:21;;;;;;;2.13;1.40;;;22.90;46.20;;;;;;6072425;28;83150;-63
2022/12/23 03:16:22;;;;;;;1.80;1.50;;;22.80;46.20;;;;;;6059064;28;81104;-61
2022/12/23 03:19:23;;;;;;;1.92;1.23;;;22.90;46.20;;;;;;6059159;28;80692;-60
2022/12/23 03:22:23;;;;;;;1.50;1.40;;;22.90;46.10;;;;;;6070773;28;81467;-62
2022/12/23 03:25:24;;;;;;;2.10;1.40;;;22.90;46.10;;;;;;6074181;28;81053;-63
2022/12/23 03:28:24;;;;;;;1.55;1.20;;;22.90;46.10;;;;;;6058594;28;80151;-62
2022/12/23 03:31:25;;;;;;;1.50;1.40;;;22.90;45.90;;;;;;6058758;28;81713;-61
2022/12/23 03:34:26;;;;;;;1.70;1.60;;;22.90;45.90;;;;;;6059039;28;80481;-63
2022/12/23 03:37:26;;;;;;;2.38;1.50;;;22.90;45.90;;;;;;6058927;28;83355;-61
2022/12/23 03:40:27;;;;;;;1.20;1.10;;;22.90;45.80;;;;;;6061329;28;81097;-61
2022/12/23 03:43:27;;;;;;;1.45;1.33;;;22.90;45.80;;;;;;6059321;28;81808;-60
2022/12/23 03:46:28;;;;;;;1.35;1.20;;;22.90;45.80;;;;;;6076856;28;81978;-61
2022/12/23 03:49:28;;;;;;;1.20;1.10;;;22.90;45.80;;;;;;6066214;28;81570;-61
2022/12/23 03:52:29;;;;;;;1.83;1.30;;;22.90;45.80;;;;;;6070508;28;80739;-61
2022/12/23 03:55:29;;;;;;;1.73;1.40;;;22.90;45.70;;;;;;6058415;28;83108;-61
2022/12/23 03:58:30;;;;;;;1.40;1.30;;;22.90;45.70;;;;;;6080558;28;81102;-62
2022/12/23 04:01:30;;;;;;;1.65;1.33;;;22.80;45.60;;;;;;6067226;28;80853;-60
2022/12/23 04:04:31;;;;;;;1.30;1.10;;;22.90;45.70;;;;;;6081261;28;81871;-61
2022/12/23 04:07:31;;;;;;;2.25;1.67;;;22.80;45.60;;;;;;6079648;28;80397;-60
2022/12/23 04:10:32;;;;;;;1.33;1.23;;;22.80;45.70;;;;;;6057779;28;80143;-60
2022/12/23 04:13:33;;;;;;;1.45;1.30;;;22.80;45.70;;;;;;6070944;28;82565;-61
2022/12/23 04:16:33;;;;;;;2.03;1.33;;;22.90;45.80;;;;;;6058326;28;84401;-60
2022/12/23 04:19:34;;;;;;;1.40;1.23;;;22.90;45.60;;;;;;6068176;28;80619;-62
2022/12/23 04:22:34;;;;;;;2.22;1.60;;;22.90;45.50;;;;;;6079922;28;81368;-61
2022/12/23 04:25:35;;;;;;;1.67;1.45;;;23.00;45.60;;;;;;6080466;28;80780;-60
2022/12/23 04:28:35;;;;;;;1.63;1.30;;;23.00;45.50;;;;;;6081050;28;82214;-59
2022/12/23 04:31:36;;;;;;;2.13;1.30;;;23.00;45.50;;;;;;6080240;28;81077;-62
2022/12/23 04:34:36;;;;;;;1.48;1.38;;;23.10;45.50;;;;;;6079565;28;81048;-61
2022/12/23 04:37:37;;;;;;;2.50;1.15;;;23.10;45.40;;;;;;6080033;28;81062;-62
2022/12/23 04:40:38;;;;;;;1.30;1.20;;;23.10;45.30;;;;;;6079290;28;81111;-64
2022/12/23 04:43:38;;;;;;;2.85;1.40;;;23.20;45.20;;;;;;6073174;28;81307;-64
2022/12/23 04:46:39;;;;;;;1.58;1.33;;;23.20;45.10;;;;;;6063804;28;80821;-64
2022/12/23 04:49:39;;;;;;;1.38;1.10;;;23.20;45.10;;;;;;6063011;28;81014;-63
2022/12/23 04:52:40;;;;;;;1.30;1.20;;;23.20;45.10;;;;;;6059346;28;80272;-65
2022/12/23 04:55:40;;;;;;;1.48;1.30;;;23.30;45.20;;;;;;6072431;28;81882;-65
2022/12/23 04:58:41;;;;;;;1.20;1.10;;;23.30;45.20;;;;;;6069928;28;81149;-64
2022/12/23 05:01:41;;;;;;;1.27;1.17;;;23.30;45.10;;;;;;6056924;28;80488;-63
2022/12/23 05:04:42;;;;;;;1.42;1.33;;;23.30;45.10;;;;;;6080197;28;80899;-64
2022/12/23 05:07:42;;;;;;;2.15;1.10;;;23.30;45.10;;;;;;6082106;28;80953;-64
2022/12/23 05:10:43;;;;;;;1.95;1.20;;;23.30;45.30;;;;;;6065927;28;81369;-67
2022/12/23 05:13:43;;;;;;;1.52;1.30;;;23.40;45.50;;;;;;6056262;28;82797;-60
2022/12/23 05:16:44;;;;;;;2.42;1.30;;;23.50;45.60;;;;;;6066107;28;81402;-63
2022/12/23 05:19:44;;;;;;;2.50;1.30;;;23.40;45.00;;;;;;6079698;28;81835;-60
2022/12/23 05:22:45;;;;;;;2.95;1.40;;;23.50;45.40;;;;;;6053006;28;81365;-58
2022/12/23 05:25:46;;;;;;;1.70;1.30;;;23.50;45.60;;;;;;6059847;28;80631;-62
2022/12/23 05:28:46;;;;;;;5.40;1.77;;;23.50;45.60;;;;;;6054211;28;81216;-61
2022/12/23 05:31:47;;;;;;;6.60;1.25;;;23.60;46.20;;;;;;6068001;28;82017;-61
2022/12/23 05:34:47;;;;;;;4.75;1.60;;;23.60;46.40;;;;;;6070270;28;84960;-60
2022/12/23 05:37:48;;;;;;;4.35;1.67;;;23.60;46.10;;;;;;6077392;28;80872;-61
2022/12/23 05:40:48;;;;;;;5.95;1.42;;;23.60;45.90;;;;;;6064983;28;81444;-62
2022/12/23 05:43:49;;;;;;;3.92;1.70;;;23.60;46.10;;;;;;6064931;28;80254;-61
2022/12/23 05:46:49;;;;;;;3.58;1.70;;;23.70;45.90;;;;;;6062612;28;79977;-62
2022/12/23 05:49:50;;;;;;;7.05;1.63;;;23.70;45.70;;;;;;6071257;28;81160;-62
2022/12/23 05:52:50;;;;;;;6.03;2.15;;;23.60;45.60;;;;;;6081287;28;80575;-60
2022/12/23 05:55:51;;;;;;;4.07;2.10;;;23.60;45.80;;;;;;6078789;28;81626;-62
2022/12/23 05:58:52;;;;;;;3.88;1.75;;;23.70;45.70;;;;;;6081924;28;86277;-63
2022/12/23 06:01:53;;;;;;;4.65;1.70;;;23.70;45.60;;;;;;6083931;28;85170;-65
2022/12/23 06:04:53;;;;;;;4.30;2.00;;;23.70;45.60;;;;;;6077778;28;81933;-71
2022/12/23 06:07:54;;;;;;;7.28;2.60;;;23.70;45.40;;;;;;6073774;28;80856;-63
2022/12/23 06:10:55;;;;;;;7.68;2.35;;;23.70;45.30;;;;;;6072835;28;81914;-62
2022/12/23 06:13:55;;;;;;;1.98;1.60;;;23.70;45.40;;;;;;6075560;28;83406;-65
2022/12/23 06:16:56;;;;;;;4.03;1.92;;;23.60;46.60;;;;;;6065138;28;81617;-63
2022/12/23 06:19:56;;;;;;;4.50;1.80;;;23.50;47.10;;;;;;6072035;28;81174;-63
2022/12/23 06:22:57;;;;;;;2.55;1.40;;;23.50;47.70;;;;;;6068826;28;80853;-64
2022/12/23 06:25:57;;;;;;;4.10;1.50;;;23.50;48.00;;;;;;6067886;28;80820;-62
2022/12/23 06:28:58;;;;;;;3.03;1.73;;;23.40;48.60;;;;;;6060128;28;84301;-62
2022/12/23 06:31:58;;;;;;;3.78;1.25;;;23.30;49.30;;;;;;6071166;28;81429;-62
2022/12/23 06:34:59;;;;;;;4.97;1.75;;;23.30;49.80;;;;;;6059887;28;80494;-64
2022/12/23 06:37:59;;;;;;;2.58;1.48;;;23.20;50.40;;;;;;6039539;28;86026;-63
2022/12/23 06:41:00;;;;;;;2.75;1.45;;;23.20;50.60;;;;;;5910755;28;82907;-64
2022/12/23 06:44:00;;;;;;;2.65;1.38;;;23.20;51.10;;;;;;6007021;28;82227;-62
2022/12/23 06:47:01;;;;;;;2.15;1.33;;;23.10;51.00;;;;;;6066953;28;80688;-63
2022/12/23 06:50:02;;;;;;;1.95;1.02;;;23.20;51.40;;;;;;6072221;28;80819;-58
2022/12/23 06:53:02;;;;;;;2.25;1.48;;;23.10;51.60;;;;;;6066995;28;80451;-59
2022/12/23 06:56:03;;;;;;;3.80;1.48;;;23.10;51.80;;;;;;6074077;28;81493;-59
2022/12/23 06:59:03;;;;;;;2.22;1.13;;;23.00;52.10;;;;;;6070088;28;80681;-59
2022/12/23 07:02:04;;;;;;;2.15;1.13;;;23.00;52.40;;;;;;6067720;28;81665;-61
2022/12/23 07:05:05;;;;;;;3.90;1.50;;;23.00;52.70;;;;;;6054239;28;81646;-59
2022/12/23 07:08:05;;;;;;;2.28;1.40;;;22.90;52.80;;;;;;6073015;28;81297;-58
2022/12/23 07:11:07;;;;;;;4.20;1.52;;;22.90;52.80;;;;;;6056768;28;81584;-59
2022/12/23 07:14:07;;;;;;;1.98;1.42;;;22.90;53.20;;;;;;6060647;28;80525;-63
2022/12/23 07:17:08;;;;;;;3.58;1.25;;;22.90;53.00;;;;;;6054849;28;80216;-60
2022/12/23 07:20:09;;;;;;;2.85;1.13;;;22.90;53.50;;;;;;6069817;28;85225;-61
2022/12/23 07:23:09;;;;;;;4.13;1.75;;;22.90;54.20;;;;;;6073773;28;82029;-60
2022/12/23 07:26:10;;;;;;;2.22;1.50;;;22.90;54.90;;;;;;6072008;28;85893;-61
2022/12/23 07:29:10;;;;;;;4.45;1.90;;;22.90;55.10;;;;;;6058068;28;83351;-61
2022/12/23 07:32:11;;;;;;;3.78;1.35;;;22.90;55.20;;;;;;6072329;28;83294;-61
2022/12/23 07:35:11;;;;;;;3.75;1.58;;;22.90;54.90;;;;;;6070730;28;82159;-59
2022/12/23 07:38:12;;;;;;;3.15;1.85;;;22.90;55.00;;;;;;6071597;28;80799;-60
2022/12/23 07:41:12;;;;;;;8.85;2.35;;;22.90;55.20;;;;;;6077132;28;81815;-60
2022/12/23 07:44:13;;;;;;;4.53;2.10;;;22.90;56.00;;;;;;6063912;28;83663;-61
2022/12/23 07:47:14;;;;;;;3.50;1.80;;;22.80;56.60;;;;;;6066486;28;82150;-61
2022/12/23 07:50:16;;;;;;;3.70;1.90;;;22.80;57.50;;;;;;6064546;28;82782;-61
2022/12/23 07:53:16;;;;;;;3.35;1.50;;;22.70;58.10;;;;;;6062184;28;83446;-62
2022/12/23 07:56:17;;;;;;;7.05;1.58;;;22.70;58.50;;;;;;6068561;28;81563;-61
2022/12/23 07:59:17;;;;;;;7.15;1.90;;;22.70;58.80;;;;;;6068990;28;80325;-61
2022/12/23 08:02:20;;;;;;;4.80;2.08;;;22.70;59.20;;;;;;6053897;28;81201;-63
2022/12/23 08:05:21;;;;;;;6.38;1.90;;;22.70;59.50;;;;;;6057421;28;83904;-62
2022/12/23 08:08:21;;;;;;;4.70;2.33;;;22.70;59.80;;;;;;6056164;28;81013;-60
2022/12/23 08:11:22;;;;;;;3.33;1.92;;;22.70;60.20;;;;;;6072926;28;80589;-61
2022/12/23 08:14:22;;;;;;;4.28;1.95;;;22.80;60.30;;;;;;6079614;28;83254;-61
2022/12/23 08:17:23;;;;;;;6.03;2.13;;;22.70;60.60;;;;;;6068527;28;80956;-61
2022/12/23 08:20:23;;;;;;;3.60;1.83;;;22.70;60.10;;;;;;6087489;28;81757;-63
2022/12/23 08:23:24;;;;;;;5.30;2.00;;;22.70;60.60;;;;;;6059551;28;83391;-66
2022/12/23 08:26:25;;;;;;;6.45;1.65;;;22.70;60.20;;;;;;6045254;28;82185;-61
2022/12/23 08:29:25;;;;;;;6.43;2.42;;;22.80;60.60;;;;;;6055725;28;83574;-61
2022/12/23 08:32:26;;;;;;;4.30;1.90;;;22.80;59.50;;;;;;6065552;28;83675;-61
2022/12/23 08:35:26;;;;;;;4.25;2.17;;;22.90;59.60;;;;;;6061653;28;80746;-61
2022/12/23 08:38:27;;;;;;;3.30;2.00;;;22.90;59.30;;;;;;6073415;28;83886;-74
2022/12/23 08:41:28;;;;;;;7.47;2.10;;;22.80;59.30;;;;;;6075341;28;83778;-60
2022/12/23 08:44:29;;;;;;;4.80;2.17;;;22.80;59.40;;;;;;6063756;28;80919;-62
2022/12/23 08:47:30;;;;;;;4.45;2.13;;;22.90;59.30;;;;;;6063162;28;80667;-62
2022/12/23 08:50:31;;;;;;;3.50;2.45;;;22.80;59.70;;;;;;6059460;28;81342;-62
2022/12/23 08:53:31;;;;;;;4.80;2.30;;;22.90;60.00;;;;;;6070283;28;80722;-65
2022/12/23 08:56:32;;;;;;;6.70;2.40;;;22.80;60.30;;;;;;6074405;28;81187;-61
2022/12/23 08:59:32;;;;;;;4.82;2.50;;;22.90;60.00;;;;;;6055117;28;86723;-64
2022/12/23 09:02:34;;;;;;;4.80;1.70;;;22.90;59.70;;;;;;6062328;28;84042;-67
2022/12/23 09:05:34;;;;;;;4.07;2.05;;;22.90;60.00;;;;;;6066111;28;84764;-64
2022/12/23 09:08:35;;;;;;;5.70;1.80;;;22.90;59.80;;;;;;6062446;28;82631;-65
2022/12/23 09:11:36;;;;;;;3.55;1.90;;;22.90;59.70;;;;;;6065202;28;80902;-62
2022/12/23 09:14:36;;;;;;;5.68;2.65;;;22.90;60.20;;;;;;6061753;28;81378;-62
2022/12/23 09:17:37;;;;;;;2.70;1.80;;;23.00;59.90;;;;;;6064304;28;86245;-64
2022/12/23 09:20:37;;;;;;;3.97;1.80;;;23.00;59.70;;;;;;6068280;28;80280;-63
2022/12/23 09:23:38;;;;;;;5.10;2.03;;;22.90;59.60;;;;;;6065222;28;81646;-64
2022/12/23 09:26:38;;;;;;;3.03;2.08;;;22.90;60.40;;;;;;6063180;28;80396;-65
2022/12/23 09:29:39;;;;;;;3.38;1.80;;;22.90;60.00;;;;;;6063005;28;80902;-65
2022/12/23 09:32:39;;;;;;;2.90;2.13;;;22.90;59.60;;;;;;6061286;28;81741;-64
2022/12/23 09:35:40;;;;;;;4.13;2.10;;;22.90;59.90;;;;;;6062679;28;80666;-60
2022/12/23 09:38:41;;;;;;;5.30;2.10;;;22.90;58.90;;;;;;6063248;28;80764;-59
2022/12/23 09:41:41;;;;;;;3.55;2.30;;;23.00;58.80;;;;;;6062808;28;81575;-58
2022/12/23 09:44:43;;;;;;;3.33;2.00;;;22.90;58.80;;;;;;6056451;28;80438;-59
2022/12/23 09:47:43;;;;;;;1.98;1.63;;;23.00;58.80;;;;;;6065281;28;86138;-61
2022/12/23 09:50:45;;;;;;;1.98;1.35;;;23.00;59.50;;;;;;6066456;28;81400;-60
2022/12/23 09:53:46;;;;;;;2.50;1.67;;;23.00;59.70;;;;;;6057005;28;80911;-61
2022/12/23 09:56:46;;;;;;;6.70;1.58;;;23.00;59.30;;;;;;6049354;28;83783;-59
2022/12/23 09:59:47;;;;;;;5.72;1.55;;;23.00;59.50;;;;;;6055305;28;85574;-59
2022/12/23 10:02:47;;;;;;;5.82;1.85;;;23.00;59.30;;;;;;6062921;28;81421;-59
2022/12/23 10:05:48;;;;;;;3.88;1.55;;;23.00;59.00;;;;;;6061592;28;80790;-59
2022/12/23 10:08:48;;;;;;;2.28;1.75;;;23.00;58.80;;;;;;6058473;28;83277;-61
2022/12/23 10:11:50;;;;;;;4.00;1.27;;;23.00;58.80;;;;;;6066823;28;80395;-61
2022/12/23 10:14:51;;;;;;;2.75;1.50;;;23.10;58.70;;;;;;6069216;28;81566;-67
2022/12/23 10:17:51;;;;;;;1.55;1.35;;;23.10;58.90;;;;;;6066756;28;82296;-65
2022/12/23 10:20:52;;;;;;;2.28;1.40;;;23.10;59.10;;;;;;6065543;28;81469;-65
2022/12/23 10:23:52;;;;;;;6.18;1.92;;;23.10;58.90;;;;;;6061190;28;81812;-65
2022/12/23 10:26:53;;;;;;;2.70;1.45;;;23.10;58.90;;;;;;6072994;28;81215;-64
2022/12/23 10:29:53;;;;;;;5.85;1.73;;;23.20;59.00;;;;;;6064165;28;80841;-69
2022/12/23 10:32:54;;;;;;;3.17;1.40;;;23.20;58.90;;;;;;6063532;28;80379;-63
2022/12/23 10:35:55;;;;;;;7.60;2.10;;;23.20;58.70;;;;;;6063398;28;80561;-65
2022/12/23 10:38:55;;;;;;;10.38;2.22;;;23.20;58.50;;;;;;6080017;28;81815;-64
2022/12/23 10:41:56;;;;;;;5.35;1.65;;;23.20;58.60;;;;;;6066036;28;82412;-61
2022/12/23 10:44:56;;;;;;;5.40;2.30;;;23.30;59.00;;;;;;6063278;28;85769;-60
2022/12/23 10:47:57;;;;;;;7.55;2.53;;;23.20;58.70;;;;;;6062252;28;80547;-59
2022/12/23 10:50:57;;;;;;;7.00;2.25;;;23.30;58.90;;;;;;6070710;28;80021;-60
2022/12/23 10:53:58;;;;;;;9.75;2.00;;;23.30;58.40;;;;;;6080208;28;80646;-60
2022/12/23 10:56:58;;;;;;;4.30;1.70;;;23.20;58.90;;;;;;6060513;28;80770;-59
2022/12/23 10:59:59;;;;;;;8.68;2.17;;;23.20;58.80;;;;;;6065543;28;82028;-58
2022/12/23 11:02:59;;;;;;;4.45;2.00;;;23.20;58.60;;;;;;6066129;28;80794;-60
2022/12/23 11:06:00;;;;;;;5.53;2.00;;;23.20;58.80;;;;;;6067095;28;80411;-61
2022/12/23 11:09:00;;;;;;;4.68;1.90;;;23.30;58.80;;;;;;6067487;28;80401;-60
2022/12/23 11:12:01;;;;;;;60.33;4.78;;;23.20;58.50;;;;;;6069905;28;81417;-67
2022/12/23 11:15:01;;;;;;;9.50;2.22;;;23.20;58.50;;;;;;6069749;28;81689;-60
2022/12/23 11:18:02;;;;;;;20.83;2.35;;;23.20;58.80;;;;;;6060767;28;81021;-62
2022/12/23 11:21:03;;;;;;;5.65;2.10;;;23.30;58.20;;;;;;6058264;28;80855;-61
2022/12/23 11:24:03;;;;;;;7.15;2.35;;;23.30;57.40;;;;;;6058892;28;80363;-63
2022/12/23 11:27:04;;;;;;;6.00;2.40;;;23.20;56.20;;;;;;6059372;28;87138;-62
2022/12/23 11:30:04;;;;;;;5.68;2.72;;;23.20;54.90;;;;;;6074612;28;80294;-62
2022/12/23 11:33:05;;;;;;;6.65;2.63;;;23.20;54.00;;;;;;6060955;28;81033;-62
2022/12/23 11:36:06;;;;;;;8.98;2.80;;;23.10;53.50;;;;;;6075150;28;82074;-64
2022/12/23 11:39:07;;;;;;;6.97;2.20;;;23.10;53.60;;;;;;6060875;28;80414;-63
2022/12/23 11:42:07;;;;;;;6.63;2.30;;;23.20;54.30;;;;;;6070656;28;81097;-63
2022/12/23 11:45:08;;;;;;;5.95;2.28;;;23.20;54.90;;;;;;6069790;28;80589;-60
2022/12/23 11:48:08;;;;;;;2.88;2.15;;;23.20;55.50;;;;;;6074444;28;80985;-61
2022/12/23 11:51:09;;;;;;;3.22;1.83;;;23.20;56.20;;;;;;6055671;28;83320;-60
2022/12/23 11:54:09;;;;;;;2.97;1.65;;;23.20;56.80;;;;;;6067539;28;82260;-63
2022/12/23 11:57:10;;;;;;;4.00;2.28;;;23.30;57.10;;;;;;6067849;28;80780;-59
2022/12/23 12:00:10;;;;;;;4.22;2.13;;;23.30;57.90;;;;;;6061779;28;80746;-62
2022/12/23 12:03:11;;;;;;;3.40;2.03;;;23.20;58.10;;;;;;6075719;28;81314;-64
2022/12/23 12:06:11;;;;;;;4.22;1.92;;;23.30;58.30;;;;;;6059957;28;81245;-63
2022/12/23 12:09:12;;;;;;;5.20;2.08;;;23.30;58.80;;;;;;6069035;28;80412;-63
2022/12/23 12:12:12;;;;;;;4.18;1.90;;;23.30;59.20;;;;;;6069124;28;81503;-69
2022/12/23 12:15:13;;;;;;;3.10;1.67;;;23.30;59.20;;;;;;6083255;28;80587;-63
2022/12/23 12:18:13;;;;;;;2.72;1.60;;;23.20;59.80;;;;;;6072257;28;83565;-63
2022/12/23 12:21:14;;;;;;;4.85;1.58;;;23.20;59.90;;;;;;6058479;28;80826;-62
2022/12/23 12:24:15;;;;;;;1.90;1.60;;;23.30;59.90;;;;;;6064538;28;80902;-62
2022/12/23 12:27:16;;;;;;;1.70;1.40;;;23.30;59.90;;;;;;6067801;28;80829;-61
2022/12/23 12:30:16;;;;;;;1.67;1.33;;;23.30;60.00;;;;;;6070877;28;81832;-60
2022/12/23 12:33:17;;;;;;;2.38;1.30;;;23.30;60.10;;;;;;6080026;28;82274;-61
2022/12/23 12:36:17;;;;;;;1.42;1.17;;;23.20;59.90;;;;;;6084420;28;80886;-62
2022/12/23 12:39:18;;;;;;;2.20;1.30;;;23.20;59.90;;;;;;6084436;28;80998;-63
2022/12/23 12:42:18;;;;;;;3.60;1.02;;;23.20;60.00;;;;;;6082534;28;81208;-63
2022/12/23 12:45:19;;;;;;;3.50;1.52;;;23.20;60.00;;;;;;6043890;28;81122;-62
2022/12/23 12:48:22;;;;;;;1.80;1.17;;;23.20;59.90;;;;;;6060311;28;80297;-61
2022/12/23 12:51:22;;;;;;;2.83;1.42;;;23.20;59.70;;;;;;6065729;28;80858;-61
2022/12/23 12:54:23;;;;;;;2.00;1.42;;;23.20;59.60;;;;;;6066842;28;82277;-63
2022/12/23 12:57:23;;;;;;;2.40;1.45;;;23.20;59.30;;;;;;6065099;28;85792;-63
2022/12/23 13:00:24;;;;;;;1.73;1.40;;;23.20;59.40;;;;;;6068553;28;85401;-61
2022/12/23 13:03:25;;;;;;;1.58;1.30;;;23.20;59.60;;;;;;6067002;28;80844;-60
2022/12/23 13:06:25;;;;;;;1.77;1.45;;;23.20;60.00;;;;;;6062241;28;80485;-62
2022/12/23 13:09:26;;;;;;;1.63;1.40;;;23.20;60.40;;;;;;6062178;28;80868;-60
2022/12/23 13:12:26;;;;;;;2.42;1.63;;;23.20;60.80;;;;;;6077294;28;81147;-60
2022/12/23 13:15:27;;;;;;;2.60;1.55;;;23.20;61.10;;;;;;6075220;28;83768;-61
2022/12/23 13:18:27;;;;;;;2.25;1.50;;;23.20;60.50;;;;;;6064240;28;80533;-62
2022/12/23 13:21:28;;;;;;;2.22;1.50;;;23.20;60.90;;;;;;6082094;28;81556;-64
2022/12/23 13:24:28;;;;;;;1.77;1.30;;;23.20;60.70;;;;;;6075273;28;80562;-58
2022/12/23 13:27:29;;;;;;;3.65;1.60;;;23.20;60.60;;;;;;6065427;28;80500;-65
2022/12/23 13:30:29;;;;;;;2.13;1.42;;;23.20;60.90;;;;;;6068530;28;83016;-63
2022/12/23 13:33:30;;;;;;;1.90;1.48;;;23.20;60.70;;;;;;6059691;28;80519;-67
2022/12/23 13:36:30;;;;;;;2.63;1.63;;;23.20;59.80;;;;;;6072564;28;80470;-64
2022/12/23 13:39:32;;;;;;;1.88;1.58;;;23.20;59.20;;;;;;6065615;28;80915;-63
2022/12/23 13:42:32;;;;;;;3.33;2.05;;;23.30;58.70;;;;;;6054859;28;81101;-66
2022/12/23 13:45:33;;;;;;;3.95;1.95;;;23.30;58.10;;;;;;6077605;28;83018;-65
2022/12/23 13:48:33;;;;;;;5.55;2.20;;;23.30;57.80;;;;;;6068569;28;81280;-66
2022/12/23 13:51:34;;;;;;;3.72;2.78;;;23.30;57.30;;;;;;6077000;28;80838;-61
2022/12/23 13:54:34;;;;;;;5.28;2.08;;;23.20;57.00;;;;;;6086862;28;83539;-61
2022/12/23 13:57:35;;;;;;;3.28;2.33;;;23.30;56.70;;;;;;6065622;28;81812;-61
2022/12/23 14:00:35;;;;;;;3.95;2.15;;;23.30;56.50;;;;;;6066699;28;85111;-62
2022/12/23 14:03:36;;;;;;;4.00;2.30;;;23.30;56.00;;;;;;6071229;28;81179;-62
2022/12/23 14:06:36;;;;;;;5.25;2.22;;;23.30;55.70;;;;;;6056541;28;81238;-63
2022/12/23 14:09:37;;;;;;;3.88;2.42;;;23.30;55.60;;;;;;6074117;28;80422;-66
2022/12/23 14:12:37;;;;;;;5.50;2.20;;;23.30;55.50;;;;;;6108549;28;85179;-64
2022/12/23 14:15:38;;;;;;;3.50;2.30;;;23.30;55.30;;;;;;6105774;28;83482;-64
2022/12/23 14:18:38;;;;;;;3.38;2.22;;;23.30;55.30;;;;;;6072782;28;81808;-67
2022/12/23 14:21:39;;;;;;;3.20;2.05;;;23.30;55.20;;;;;;6075946;28;80423;-64
2022/12/23 14:24:41;;;;;;;3.30;2.50;;;23.30;55.10;;;;;;6069223;28;81732;-66
2022/12/23 14:27:42;;;;;;;6.32;2.30;;;23.30;54.90;;;;;;6066251;28;80653;-68
2022/12/23 14:30:45;;;;;;;3.22;2.45;;;23.40;54.80;;;;;;6078075;28;86639;-63
2022/12/23 14:33:45;;;;;;;5.28;2.60;;;23.30;54.60;;;;;;6071980;28;80212;-64
2022/12/23 14:36:46;;;;;;;3.95;2.80;;;23.30;54.30;;;;;;6075637;28;80813;-62
2022/12/23 14:39:46;;;;;;;5.30;2.90;;;23.30;53.90;;;;;;6069917;28;81486;-64
2022/12/23 14:42:47;;;;;;;4.22;2.40;;;23.30;53.80;;;;;;6077062;28;82593;-66
2022/12/23 14:45:47;;;;;;;3.03;2.47;;;23.30;54.10;;;;;;6077906;28;80430;-66
2022/12/23 14:48:48;;;;;;;4.60;3.03;;;23.30;53.40;;;;;;6079271;28;81522;-67
2022/12/23 14:51:52;;;;;;;4.60;2.63;;;23.40;53.10;;;;;;6066797;28;82402;-66
2022/12/23 14:54:52;;;;;;;4.25;3.08;;;23.40;52.90;;;;;;6070570;28;80700;-66
2022/12/23 14:57:53;;;;;;;6.18;3.30;;;23.30;53.50;;;;;;6069368;28;81327;-65
2022/12/23 15:00:53;;;;;;;4.22;2.55;;;23.30;53.00;;;;;;6053985;28;81516;-64
2022/12/23 15:03:54;;;;;;;4.25;2.35;;;23.20;53.20;;;;;;6059043;28;80583;-63
2022/12/23 15:06:54;;;;;;;3.22;2.38;;;23.30;53.60;;;;;;6061788;28;81211;-63
2022/12/23 15:09:55;;;;;;;13.77;2.83;;;23.30;54.30;;;;;;6055100;28;81389;-64
2022/12/23 15:12:55;;;;;;;2.63;2.17;;;23.30;54.90;;;;;;6053989;28;81648;-65
2022/12/23 15:15:56;;;;;;;2.45;1.98;;;23.30;54.70;;;;;;6069965;28;80844;-62
2022/12/23 15:18:57;;;;;;;3.15;2.05;;;23.30;54.90;;;;;;6062109;28;81777;-63
2022/12/23 15:21:57;;;;;;;4.18;1.85;;;23.30;55.40;;;;;;6066386;28;82246;-60
2022/12/23 15:24:58;;;;;;;2.20;1.80;;;23.20;55.50;;;;;;6061314;28;81290;-63
2022/12/23 15:27:58;;;;;;;2.05;1.80;;;23.20;55.90;;;;;;6085432;28;80335;-67
2022/12/23 15:30:59;;;;;;;2.63;1.80;;;23.20;56.10;;;;;;6078575;28;80833;-64
2022/12/23 15:33:59;;;;;;;1.45;1.35;;;23.20;56.50;;;;;;6074921;28;80484;-64
2022/12/23 15:37:00;;;;;;;1.83;1.42;;;23.20;56.70;;;;;;6076878;28;81558;-65
2022/12/23 15:40:00;;;;;;;4.70;2.03;;;23.20;56.60;;;;;;6073809;28;81388;-65
2022/12/23 15:43:01;;;;;;;3.60;1.75;;;23.20;56.60;;;;;;6080074;28;81032;-62
2022/12/23 15:46:01;;;;;;;1.92;1.38;;;23.20;56.50;;;;;;6077224;28;81126;-60
2022/12/23 15:49:02;;;;;;;2.83;1.55;;;23.10;56.70;;;;;;6080059;28;80664;-59
2022/12/23 15:52:02;;;;;;;1.92;1.50;;;23.10;56.90;;;;;;6049859;28;82708;-61
2022/12/23 15:55:03;;;;;;;6.30;2.15;;;23.10;56.90;;;;;;6056497;28;80337;-59
2022/12/23 15:58:03;;;;;;;2.40;1.92;;;23.10;57.20;;;;;;6052809;28;81498;-59
2022/12/23 16:01:04;;;;;;;1.40;1.15;;;23.10;57.20;;;;;;6059910;28;80812;-59
2022/12/23 16:04:04;;;;;;;3.05;1.55;;;23.10;57.30;;;;;;6055902;28;80877;-60
2022/12/23 16:07:05;;;;;;;2.38;1.50;;;23.10;57.20;;;;;;6056442;28;82789;-60